createdAt,value
2019-03-16T00:00:28.049Z,95205.5
2019-03-16T00:05:24.755Z,95202.9
2019-03-16T00:10:21.584Z,95204.9
2019-03-16T00:15:18.413Z,95057.6
2019-03-16T00:20:15.367Z,95205.8
2019-03-16T00:25:12.145Z,94997
2019-03-16T00:30:08.806Z,95189.2
2019-03-16T00:35:05.417Z,95066.1
2019-03-16T00:40:02.323Z,95152.4
2019-03-16T00:44:58.863Z,95096.4
2019-03-16T00:49:55.517Z,95231
2019-03-16T00:54:51.822Z,95127.6
2019-03-16T00:59:48.763Z,95172.4
2019-03-16T01:04:45.468Z,95090.2
2019-03-16T01:09:43.667Z,95133.4
2019-03-16T01:14:39.459Z,95062.4
2019-03-16T01:19:36.225Z,95188.3
2019-03-16T01:24:33.058Z,95128.6
2019-03-16T01:29:29.975Z,95165.4
2019-03-16T01:34:27.027Z,95055.9
2019-03-16T01:39:24.058Z,95178.1
2019-03-16T01:44:20.819Z,95191
2019-03-16T01:49:17.197Z,95216
2019-03-16T01:54:14.035Z,95211.5
2019-03-16T01:59:10.821Z,95201.1
2019-03-16T02:04:07.802Z,95212.4
2019-03-16T02:09:04.702Z,95116.3
2019-03-16T02:14:01.267Z,95203
2019-03-16T02:18:57.411Z,95204.5
2019-03-16T02:23:54.384Z,95152.2
2019-03-16T02:28:50.827Z,95226.1
2019-03-16T02:33:47.793Z,95015.5
2019-03-16T02:38:44.658Z,95209.2
2019-03-16T02:43:41.447Z,95175.4
2019-03-16T02:48:37.803Z,95186.1
2019-03-16T02:53:34.441Z,95182.6
2019-03-16T02:58:31.410Z,95191.6
2019-03-16T03:03:29.973Z,95178.4
2019-03-16T03:08:24.500Z,95201.4
2019-03-16T03:13:21.349Z,95194.7
2019-03-16T03:18:18.404Z,95192.9
2019-03-16T03:23:15.555Z,95177.9
2019-03-16T03:28:12.191Z,95175
2019-03-16T03:33:09.150Z,95174.2
2019-03-16T03:38:06.134Z,95186.2
2019-03-16T03:43:03.116Z,95174.3
2019-03-16T03:47:59.986Z,95174.4
2019-03-16T03:52:56.731Z,95193.1
2019-03-16T03:57:53.596Z,95178.8
2019-03-16T04:02:50.353Z,95114.8
2019-03-16T04:07:46.826Z,95166.8
2019-03-16T04:12:43.421Z,95092.1
2019-03-16T04:17:40.291Z,95132.4
2019-03-16T04:22:37.257Z,95149.7
2019-03-16T04:27:34.008Z,95130.3
2019-03-16T04:32:30.846Z,95139.7
2019-03-16T04:37:27.810Z,95123
2019-03-16T04:42:24.651Z,95107.8
2019-03-16T04:47:21.781Z,95119.9
2019-03-16T04:52:18.500Z,94943.6
2019-03-16T04:57:15.651Z,95141
2019-03-16T05:02:12.253Z,95183.5
2019-03-16T05:07:09.219Z,95196.6
2019-03-16T05:12:06.026Z,95157.4
2019-03-16T05:17:02.981Z,95192.6
2019-03-16T05:21:59.684Z,95188.4
2019-03-16T05:26:56.168Z,95186.6
2019-03-16T05:31:53.146Z,95227.8
2019-03-16T05:36:49.579Z,95107
2019-03-16T05:41:46.497Z,95181.9
2019-03-16T05:46:42.883Z,95190.2
2019-03-16T05:51:39.656Z,95253.2
2019-03-16T05:56:36.504Z,95154.3
2019-03-16T06:01:33.143Z,95050.5
2019-03-16T06:06:29.755Z,95249.5
2019-03-16T06:11:25.948Z,95084.2
2019-03-16T06:16:22.533Z,95088.6
2019-03-16T06:21:18.947Z,95104
2019-03-16T06:26:15.838Z,95220.8
2019-03-16T06:31:12.245Z,95217.8
2019-03-16T06:36:09.178Z,95182.8
2019-03-16T06:41:05.538Z,95269.9
2019-03-16T06:46:02.473Z,95220
2019-03-16T06:50:58.884Z,95228.9
2019-03-16T06:55:55.985Z,95238
2019-03-16T07:00:52.835Z,95093.6
2019-03-16T07:05:49.766Z,95045
2019-03-16T07:10:46.609Z,94230.7
2019-03-16T07:15:43.257Z,95100.9
2019-03-16T07:20:40.181Z,95191.8
2019-03-16T07:25:37.214Z,95269.1
2019-03-16T07:30:37.009Z,95092.5
2019-03-16T07:35:30.360Z,95091.5
2019-03-16T07:40:27.206Z,95082.3
2019-03-16T07:45:24.373Z,95161
2019-03-16T07:50:20.716Z,95081
2019-03-16T07:55:17.707Z,95086.4
2019-03-16T08:00:14.437Z,95070.1
2019-03-16T08:05:18.453Z,95040.5
2019-03-16T08:10:08.359Z,95058.6
2019-03-16T08:15:05.339Z,95066
2019-03-16T08:20:02.241Z,95049.5
2019-03-16T08:24:59.120Z,95060
2019-03-16T08:29:56.446Z,95127.5
2019-03-16T08:34:53.346Z,95040.2
2019-03-16T08:39:51.036Z,95134.4
2019-03-16T08:44:48.133Z,95041.9
2019-03-16T08:49:44.947Z,95033.7
2019-03-16T08:54:41.646Z,94901.3
2019-03-16T08:59:38.559Z,95002.8
2019-03-16T09:04:35.649Z,95028.8
2019-03-16T09:09:33.063Z,95103.6
2019-03-16T09:14:30.007Z,94994.8
2019-03-16T09:19:27.142Z,94998.5
2019-03-16T09:24:24.262Z,95012
2019-03-16T09:29:20.795Z,95005
2019-03-16T09:34:18.029Z,94994.4
2019-03-16T09:39:15.162Z,94935.6
2019-03-16T09:44:12.317Z,94961.8
2019-03-16T09:49:09.974Z,95114
2019-03-16T09:54:06.807Z,95003.9
2019-03-16T09:59:03.799Z,94984.7
2019-03-16T10:04:00.930Z,94983.3
2019-03-16T10:08:57.725Z,95073.2
2019-03-16T10:13:54.889Z,95061.6
2019-03-16T10:18:52.506Z,94961.3
2019-03-16T10:23:49.423Z,95028.7
2019-03-16T10:28:46.328Z,95034.6
2019-03-16T10:33:43.560Z,95045.8
2019-03-16T10:38:40.650Z,95044.7
2019-03-16T10:43:37.794Z,95021.1
2019-03-16T10:48:34.572Z,95009
2019-03-16T10:53:31.867Z,95008
2019-03-16T10:58:28.782Z,94989.5
2019-03-16T11:03:26.022Z,94852.3
2019-03-16T11:08:22.756Z,94996.2
2019-03-16T11:13:19.928Z,95000.5
2019-03-16T11:18:16.823Z,95001.5
2019-03-16T11:23:13.847Z,94896.4
2019-03-16T11:28:10.296Z,94978.6
2019-03-16T11:33:07.308Z,94982.3
2019-03-16T11:38:04.161Z,94986.7
2019-03-16T11:43:01.269Z,94975.1
2019-03-16T11:47:58.431Z,94978.6
2019-03-16T11:52:55.497Z,94973.7
2019-03-16T11:57:52.563Z,94988.6
2019-03-16T12:02:52.823Z,94979.1
2019-03-16T12:07:48.159Z,94966.6
2019-03-16T12:12:44.985Z,94972.4
2019-03-16T12:17:41.974Z,94909.3
2019-03-16T12:22:39.070Z,94983.9
2019-03-16T12:27:35.831Z,94984.5
2019-03-16T12:32:32.978Z,94989.5
2019-03-16T12:37:29.715Z,94989.5
2019-03-16T12:42:26.747Z,94987.2
2019-03-16T12:47:23.705Z,94988.3
2019-03-16T12:52:20.794Z,94980.7
2019-03-16T12:57:17.979Z,94986.5
2019-03-16T13:02:15.045Z,94988.6
2019-03-16T13:07:11.973Z,94993.7
2019-03-16T13:12:09.317Z,94993.5
2019-03-16T13:17:06.489Z,94983.9
2019-03-16T13:22:03.678Z,94986.1
2019-03-16T13:27:00.555Z,94999.7
2019-03-16T13:31:57.793Z,95000.1
2019-03-16T13:36:54.713Z,94998.4
2019-03-16T13:41:51.765Z,94990.6
2019-03-16T13:46:48.411Z,94977.4
2019-03-16T13:51:45.497Z,95020.1
2019-03-16T13:56:42.325Z,95010.2
2019-03-16T14:01:39.010Z,95007.1
2019-03-16T14:06:36.236Z,95011.4
2019-03-16T14:11:33.380Z,95019.6
2019-03-16T14:16:30.255Z,95012.1
2019-03-16T14:21:27.239Z,95012.1
2019-03-16T14:26:24.291Z,95009.7
2019-03-16T14:31:21.646Z,95021.4
2019-03-16T14:36:18.651Z,95000.2
2019-03-16T14:41:15.530Z,95033.8
2019-03-16T14:46:12.484Z,95038.9
2019-03-16T14:56:07.240Z,95112.1
2019-03-16T15:01:04.159Z,95058
2019-03-16T15:06:00.931Z,95046.1
2019-03-16T15:10:57.921Z,95035.5
2019-03-16T15:15:54.887Z,95049.5
2019-03-16T15:20:52.118Z,95047.7
2019-03-16T15:25:49.045Z,95050.9
2019-03-16T15:30:50.816Z,95055.6
2019-03-16T15:35:43.144Z,95061.3
2019-03-16T15:40:39.927Z,95057.1
2019-03-16T15:45:36.889Z,95055
2019-03-16T15:50:34.055Z,95067.7
2019-03-16T15:55:31.051Z,95068.7
2019-03-16T16:00:28.033Z,95070.2
2019-03-16T16:05:24.863Z,95071.8
2019-03-16T16:10:22.072Z,95072.6
2019-03-16T16:15:18.925Z,95081.1
2019-03-16T16:20:16.055Z,95073.3
2019-03-16T16:25:13.151Z,95081.4
2019-03-16T16:30:10.133Z,95098.6
2019-03-16T16:35:07.352Z,95079.5
2019-03-16T16:40:04.356Z,95110.3
2019-03-16T16:45:01.204Z,95120.3
2019-03-16T16:49:58.418Z,95126.5
2019-03-16T16:54:55.310Z,95131.3
2019-03-16T16:59:52.246Z,95122.9
2019-03-16T17:04:49.212Z,95040.4
2019-03-16T17:09:46.235Z,95135.9
2019-03-16T17:14:43.208Z,95139.2
2019-03-16T17:19:40.098Z,95059.7
2019-03-16T17:24:36.957Z,95131.5
2019-03-16T17:29:34.121Z,95161.5
2019-03-16T17:34:30.875Z,95164.1
2019-03-16T17:39:27.968Z,95170.1
2019-03-16T17:44:25.026Z,95176.7
2019-03-16T17:49:22.185Z,95175.6
2019-03-16T17:54:18.992Z,95184.4
2019-03-16T17:59:16.181Z,95195
2019-03-16T18:04:13.066Z,95211
2019-03-16T18:09:10.049Z,95215.4
2019-03-16T18:14:07.093Z,95226.5
2019-03-16T18:19:04.045Z,95225.2
2019-03-16T18:24:00.883Z,95226.4
2019-03-16T18:28:57.987Z,95199.2
2019-03-16T18:33:54.669Z,95222.4
2019-03-16T18:38:51.645Z,95231.4
2019-03-16T18:43:48.668Z,95243.7
2019-03-16T18:48:45.324Z,95240
2019-03-16T18:53:41.792Z,95244
2019-03-16T18:58:38.854Z,95251.5
2019-03-16T19:03:35.542Z,95253.4
2019-03-16T19:08:32.556Z,95269
2019-03-16T19:13:29.403Z,95275.5
2019-03-16T19:18:26.660Z,95199.2
2019-03-16T19:23:23.203Z,95286
2019-03-16T19:28:20.269Z,95289.9
2019-03-16T19:33:17.168Z,95287.7
2019-03-16T19:38:14.300Z,95285.1
2019-03-16T19:43:11.377Z,95276.7
2019-03-16T19:48:08.482Z,95286.6
2019-03-16T19:53:05.195Z,95292.3
2019-03-16T19:58:01.552Z,95298.7
2019-03-16T20:02:58.735Z,95301.9
2019-03-16T20:07:55.187Z,95316.4
2019-03-16T20:12:53.269Z,95332.5
2019-03-16T20:17:48.881Z,95331.9
2019-03-16T20:22:46.370Z,95244.3
2019-03-16T20:27:42.851Z,95321.5
2019-03-16T20:32:39.850Z,95325.4
2019-03-16T20:37:36.715Z,95328.7
2019-03-16T20:42:33.538Z,95324.6
2019-03-16T20:47:31.217Z,95324.3
2019-03-16T20:52:27.464Z,95325.9
2019-03-16T20:57:24.628Z,95335.2
2019-03-16T21:02:21.517Z,95352.2
2019-03-16T21:07:18.236Z,95340.5
2019-03-16T21:12:15.274Z,95347
2019-03-16T21:17:12.455Z,95292.3
2019-03-16T21:22:09.654Z,95349.7
2019-03-16T21:27:06.545Z,95350.6
2019-03-16T21:32:03.669Z,95336.8
2019-03-16T21:37:00.295Z,95272.6
2019-03-16T21:41:57.144Z,95360.1
2019-03-16T21:46:54.127Z,95363.3
2019-03-16T21:51:51.108Z,95320.7
2019-03-16T21:56:48.158Z,95371
2019-03-16T22:01:45.198Z,95288.4
2019-03-16T22:06:42.227Z,95287.2
2019-03-16T22:11:39.226Z,95293.5
2019-03-16T22:16:36.013Z,95292.3
2019-03-16T22:21:32.945Z,95378.2
2019-03-16T22:26:29.843Z,95378.1
2019-03-16T22:31:26.639Z,95295.7
2019-03-16T22:36:23.691Z,95294.6
2019-03-16T22:41:20.705Z,95383.7
2019-03-16T22:46:17.769Z,95389.7
2019-03-16T22:51:14.602Z,95354.5
2019-03-16T22:56:11.649Z,95304.6
2019-03-16T23:01:08.279Z,95317.3
2019-03-16T23:06:05.444Z,95287.8
2019-03-16T23:11:02.428Z,95270.9
2019-03-16T23:15:59.535Z,95281.9
2019-03-16T23:20:56.300Z,95283.8
2019-03-16T23:25:52.917Z,95283.5
2019-03-16T23:30:49.699Z,95287.2
2019-03-16T23:35:46.690Z,95291.5
2019-03-16T23:40:43.761Z,95287.6
2019-03-16T23:45:40.661Z,95298.4
2019-03-16T23:50:37.420Z,95304
2019-03-16T23:55:34.472Z,95277.6
